createdAt,value
2019-02-24T00:02:13.450Z,11.03
2019-02-24T00:04:43.995Z,8.93
2019-02-24T00:07:14.866Z,10.73
2019-02-24T00:09:45.939Z,12.57
2019-02-24T00:12:16.559Z,9.10
2019-02-24T00:14:47.088Z,12.53
2019-02-24T00:17:17.620Z,9.90
2019-02-24T00:19:50.741Z,8.67
2019-02-24T00:22:21.242Z,8.50
2019-02-24T00:24:51.775Z,11.13
2019-02-24T00:27:22.286Z,12.47
2019-02-24T00:29:52.803Z,9.93
2019-02-24T00:32:23.372Z,10.40
2019-02-24T00:34:54.259Z,9.40
2019-02-24T00:37:24.748Z,8.10
2019-02-24T00:39:55.301Z,10.63
2019-02-24T00:42:25.837Z,10.13
2019-02-24T00:44:56.367Z,9.33
2019-02-24T00:47:26.856Z,9.30
2019-02-24T00:49:57.387Z,10.97
2019-02-24T00:52:27.890Z,10.00
2019-02-24T00:54:58.428Z,9.03
2019-02-24T00:57:28.951Z,14.30
2019-02-24T00:59:59.484Z,10.77
2019-02-24T01:02:30.047Z,11.53
2019-02-24T01:05:00.731Z,10.08
2019-02-24T01:07:31.361Z,12.70
2019-02-24T01:10:02.001Z,10.07
2019-02-24T01:12:32.842Z,10.87
2019-02-24T01:15:03.358Z,12.07
2019-02-24T01:17:33.860Z,10.93
2019-02-24T01:20:04.586Z,8.90
2019-02-24T01:22:35.098Z,13.23
2019-02-24T01:25:05.741Z,10.53
2019-02-24T01:27:36.389Z,11.37
2019-02-24T01:30:07.415Z,9.80
2019-02-24T01:32:38.038Z,9.93
2019-02-24T01:35:08.704Z,9.17
2019-02-24T01:37:39.198Z,9.37
2019-02-24T01:40:09.811Z,10.53
2019-02-24T01:42:40.607Z,11.97
2019-02-24T01:45:11.147Z,9.73
2019-02-24T01:47:41.653Z,11.20
2019-02-24T01:50:12.377Z,13.53
2019-02-24T01:52:42.821Z,13.30
2019-02-24T01:55:13.321Z,9.77
2019-02-24T01:57:43.871Z,11.70
2019-02-24T02:00:14.395Z,11.07
2019-02-24T02:02:44.920Z,9.93
2019-02-24T02:05:15.427Z,8.80
2019-02-24T02:07:46.049Z,11.07
2019-02-24T02:10:16.590Z,10.47
2019-02-24T02:12:47.323Z,10.57
2019-02-24T02:15:18.036Z,11.83
2019-02-24T02:17:48.671Z,12.17
2019-02-24T02:20:20.055Z,9.30
2019-02-24T02:22:51.443Z,10.13
2019-02-24T02:25:21.987Z,11.97
2019-02-24T02:27:52.534Z,10.77
2019-02-24T02:30:23.061Z,11.50
2019-02-24T02:32:53.598Z,13.27
2019-02-24T02:35:24.300Z,14.37
2019-02-24T02:37:54.783Z,12.67
2019-02-24T02:40:25.309Z,14.23
2019-02-24T02:42:55.795Z,12.43
2019-02-24T02:45:30.232Z,12.73
2019-02-24T02:48:00.786Z,12.40
2019-02-24T02:50:31.333Z,13.97
2019-02-24T02:53:01.938Z,11.77
2019-02-24T02:55:32.432Z,12.53
2019-02-24T02:58:02.997Z,13.68
2019-02-24T03:00:34.705Z,13.70
2019-02-24T03:03:05.200Z,12.07
2019-02-24T03:05:35.736Z,13.63
2019-02-24T03:08:08.929Z,14.33
2019-02-24T03:10:39.648Z,12.13
2019-02-24T03:13:10.150Z,12.10
2019-02-24T03:15:40.666Z,15.43
2019-02-24T03:18:11.208Z,17.37
2019-02-24T03:20:41.847Z,13.33
2019-02-24T03:23:12.521Z,11.13
2019-02-24T03:25:43.083Z,12.33
2019-02-24T03:28:13.596Z,13.27
2019-02-24T03:30:44.122Z,13.30
2019-02-24T03:33:14.641Z,15.67
2019-02-24T03:35:45.260Z,15.57
2019-02-24T03:38:15.763Z,16.63
2019-02-24T03:40:46.279Z,15.47
2019-02-24T03:43:17.306Z,16.90
2019-02-24T03:45:48.187Z,13.10
2019-02-24T03:48:19.576Z,16.03
2019-02-24T03:50:51.008Z,15.98
2019-02-24T03:53:21.508Z,18.47
2019-02-24T03:55:52.540Z,13.87
2019-02-24T03:58:23.209Z,14.30
2019-02-24T04:00:53.767Z,13.80
2019-02-24T04:03:24.599Z,14.28
2019-02-24T04:05:59.248Z,14.90
2019-02-24T04:08:30.134Z,14.17
2019-02-24T04:11:01.126Z,13.98
2019-02-24T04:13:50.945Z,17.13
2019-02-24T04:16:21.587Z,15.47
2019-02-24T04:18:52.221Z,14.97
2019-02-24T04:21:22.936Z,13.60
2019-02-24T04:23:53.669Z,17.37
2019-02-24T04:26:24.175Z,17.23
2019-02-24T04:28:54.736Z,15.53
2019-02-24T04:31:25.252Z,18.07
2019-02-24T04:33:55.751Z,15.53
2019-02-24T04:36:26.281Z,16.17
2019-02-24T04:38:56.788Z,14.90
2019-02-24T04:41:27.365Z,14.83
2019-02-24T04:43:58.067Z,14.73
2019-02-24T04:46:28.601Z,15.87
2019-02-24T04:48:59.113Z,16.37
2019-02-24T04:51:29.653Z,15.80
2019-02-24T04:54:00.171Z,15.50
2019-02-24T04:56:30.723Z,16.87
2019-02-24T04:59:01.224Z,14.93
2019-02-24T05:01:31.793Z,16.27
2019-02-24T05:04:02.317Z,15.27
2019-02-24T05:06:33.026Z,14.53
2019-02-24T05:09:04.266Z,16.93
2019-02-24T05:11:34.827Z,15.70
2019-02-24T05:14:05.635Z,17.12
2019-02-24T05:16:36.176Z,14.80
2019-02-24T05:19:06.721Z,15.00
2019-02-24T05:21:37.230Z,15.93
2019-02-24T05:24:07.747Z,14.58
2019-02-24T05:26:38.269Z,14.47
2019-02-24T05:29:08.811Z,14.43
2019-02-24T05:31:39.350Z,12.87
2019-02-24T05:34:09.883Z,13.13
2019-02-24T05:36:40.440Z,16.37
2019-02-24T05:39:11.485Z,14.00
2019-02-24T05:41:41.992Z,17.90
2019-02-24T05:44:12.524Z,14.13
2019-02-24T05:46:43.048Z,12.13
2019-02-24T05:49:14.448Z,14.37
2019-02-24T05:51:44.963Z,13.00
2019-02-24T05:54:16.108Z,13.77
2019-02-24T05:56:46.603Z,14.43
2019-02-24T05:59:17.101Z,14.03
2019-02-24T06:01:47.635Z,13.30
2019-02-24T06:04:18.172Z,13.70
2019-02-24T06:06:48.700Z,13.70
2019-02-24T06:09:19.204Z,14.30
2019-02-24T06:11:49.723Z,14.17
2019-02-24T06:14:20.409Z,14.03
2019-02-24T06:16:51.257Z,40.20
2019-02-24T06:19:21.827Z,16.70
2019-02-24T06:21:52.345Z,17.83
2019-02-24T06:24:23.299Z,13.70
2019-02-24T06:26:53.966Z,13.70
2019-02-24T06:29:24.476Z,13.03
2019-02-24T06:31:55.017Z,11.93
2019-02-24T06:34:26.058Z,13.77
2019-02-24T06:36:56.569Z,14.53
2019-02-24T06:39:27.098Z,13.53
2019-02-24T06:41:57.814Z,12.90
2019-02-24T06:44:28.323Z,12.40
2019-02-24T06:46:58.828Z,13.83
2019-02-24T06:49:29.362Z,12.13
2019-02-24T06:51:59.867Z,13.17
2019-02-24T06:54:30.426Z,13.97
2019-02-24T06:57:00.958Z,14.58
2019-02-24T06:59:31.447Z,13.43
2019-02-24T07:02:02.002Z,12.07
2019-02-24T07:04:32.505Z,12.87
2019-02-24T07:07:03.053Z,13.83
2019-02-24T07:09:33.565Z,13.60
2019-02-24T07:12:04.257Z,13.18
2019-02-24T07:14:34.778Z,14.70
2019-02-24T07:17:05.339Z,14.07
2019-02-24T07:19:36.215Z,13.57
2019-02-24T07:22:06.714Z,14.17
2019-02-24T07:24:37.299Z,12.23
2019-02-24T07:27:07.843Z,13.90
2019-02-24T07:29:38.356Z,14.20
2019-02-24T07:32:08.937Z,13.10
2019-02-24T07:34:39.451Z,13.60
2019-02-24T07:37:12.929Z,14.77
2019-02-24T07:39:42.097Z,14.27
2019-02-24T07:42:12.660Z,13.20
2019-02-24T07:44:43.321Z,13.53
2019-02-24T07:47:13.827Z,15.87
2019-02-24T07:49:44.330Z,15.30
2019-02-24T07:52:14.883Z,16.57
2019-02-24T07:54:45.389Z,16.97
2019-02-24T07:57:15.965Z,15.03
2019-02-24T07:59:46.471Z,15.43
2019-02-24T08:02:17.075Z,14.77
2019-02-24T08:04:47.581Z,15.17
2019-02-24T08:07:18.188Z,15.07
2019-02-24T08:09:48.708Z,15.13
2019-02-24T08:12:19.224Z,14.30
2019-02-24T08:14:50.754Z,15.67
2019-02-24T08:17:21.308Z,15.93
2019-02-24T08:19:52.339Z,17.13
2019-02-24T08:22:22.862Z,15.20
2019-02-24T08:24:53.495Z,15.00
2019-02-24T08:27:24.016Z,16.97
2019-02-24T08:29:54.563Z,17.23
2019-02-24T08:32:25.083Z,15.90
2019-02-24T08:34:55.647Z,16.47
2019-02-24T08:37:26.176Z,16.77
2019-02-24T08:39:56.709Z,16.42
2019-02-24T08:42:27.235Z,18.20
2019-02-24T08:44:57.985Z,16.57
2019-02-24T08:47:28.560Z,16.27
2019-02-24T08:49:59.179Z,18.75
2019-02-24T08:52:29.675Z,17.40
2019-02-24T08:55:00.289Z,17.53
2019-02-24T08:57:30.880Z,18.17
2019-02-24T09:00:01.411Z,19.37
2019-02-24T09:02:31.939Z,21.20
2019-02-24T09:05:02.497Z,18.63
2019-02-24T09:07:33.048Z,19.20
2019-02-24T09:10:03.617Z,17.37
2019-02-24T09:12:34.151Z,17.83
2019-02-24T09:15:04.986Z,19.30
2019-02-24T09:17:35.515Z,20.50
2019-02-24T09:20:06.268Z,21.53
2019-02-24T09:22:36.858Z,20.70
2019-02-24T09:25:07.384Z,20.15
2019-02-24T09:27:37.943Z,19.47
2019-02-24T09:30:09.079Z,21.83
2019-02-24T09:32:39.631Z,17.20
2019-02-24T09:35:10.202Z,21.35
2019-02-24T09:37:40.787Z,23.23
2019-02-24T09:40:11.301Z,21.07
2019-02-24T09:42:41.831Z,20.53
2019-02-24T09:45:12.459Z,18.93
2019-02-24T09:47:46.662Z,20.10
2019-02-24T09:50:15.232Z,18.87
2019-02-24T09:52:45.798Z,22.30
2019-02-24T09:55:16.348Z,19.47
2019-02-24T09:57:46.875Z,20.97
2019-02-24T10:00:17.457Z,19.30
2019-02-24T10:02:47.999Z,19.53
2019-02-24T10:05:18.527Z,22.13
2019-02-24T10:07:49.083Z,20.23
2019-02-24T10:10:19.635Z,19.40
2019-02-24T10:12:50.182Z,19.57
2019-02-24T10:15:20.759Z,19.50
2019-02-24T10:17:54.148Z,20.50
2019-02-24T10:20:25.035Z,22.47
2019-02-24T10:22:55.588Z,21.00
2019-02-24T10:25:26.154Z,22.77
2019-02-24T10:27:56.676Z,23.37
2019-02-24T10:30:27.267Z,25.07
2019-02-24T10:32:57.829Z,19.70
2019-02-24T10:35:28.378Z,21.57
2019-02-24T10:37:58.955Z,21.23
2019-02-24T10:40:31.082Z,19.30
2019-02-24T10:43:01.945Z,19.40
2019-02-24T10:45:32.579Z,18.80
2019-02-24T10:48:03.109Z,20.30
2019-02-24T10:50:33.727Z,19.83
2019-02-24T10:53:04.720Z,19.60
2019-02-24T10:55:35.254Z,18.57
2019-02-24T10:58:07.958Z,19.97
2019-02-24T11:00:38.949Z,20.37
2019-02-24T11:03:09.490Z,20.43
2019-02-24T11:05:40.067Z,18.20
2019-02-24T11:08:10.615Z,19.43
2019-02-24T11:10:41.158Z,18.07
2019-02-24T11:13:13.284Z,18.40
2019-02-24T11:15:43.830Z,16.80
2019-02-24T11:18:14.329Z,17.67
2019-02-24T11:20:44.878Z,15.47
2019-02-24T11:23:15.427Z,18.90
2019-02-24T11:25:45.995Z,18.30
2019-02-24T11:28:16.543Z,17.03
2019-02-24T11:30:47.120Z,16.30
2019-02-24T11:33:17.626Z,13.87
2019-02-24T11:35:48.156Z,15.43
2019-02-24T11:38:18.762Z,16.27
2019-02-24T11:40:49.272Z,20.00
2019-02-24T11:43:19.803Z,17.53
2019-02-24T11:45:50.371Z,18.43
2019-02-24T11:48:20.961Z,18.23
2019-02-24T11:50:51.502Z,15.67
2019-02-24T11:53:22.230Z,16.50
2019-02-24T11:55:53.906Z,17.27
2019-02-24T11:58:24.428Z,14.60
2019-02-24T12:00:54.999Z,15.53
2019-02-24T12:03:25.591Z,14.70
2019-02-24T12:05:56.086Z,14.33
2019-02-24T12:08:26.639Z,15.07
2019-02-24T12:10:57.199Z,16.90
2019-02-24T12:13:27.762Z,14.33
2019-02-24T12:15:58.320Z,14.23
2019-02-24T12:18:28.863Z,16.00
2019-02-24T12:20:59.380Z,13.77
2019-02-24T12:23:29.907Z,13.33
2019-02-24T12:26:00.473Z,13.90
2019-02-24T12:28:31.025Z,16.00
2019-02-24T12:31:01.679Z,16.27
2019-02-24T12:33:32.364Z,13.27
2019-02-24T12:36:02.893Z,12.80
2019-02-24T12:38:33.778Z,12.33
2019-02-24T12:41:04.376Z,11.87
2019-02-24T12:43:35.048Z,12.90
2019-02-24T12:46:05.571Z,16.07
2019-02-24T12:48:36.546Z,13.73
2019-02-24T12:51:07.110Z,13.03
2019-02-24T12:53:37.996Z,15.23
2019-02-24T12:56:08.504Z,12.90
2019-02-24T12:58:39.323Z,16.53
2019-02-24T13:01:09.835Z,17.93
2019-02-24T13:03:40.503Z,16.10
2019-02-24T13:06:11.027Z,18.10
2019-02-24T13:08:41.561Z,18.90
2019-02-24T13:11:12.574Z,19.10
2019-02-24T13:13:43.180Z,18.13
2019-02-24T13:16:14.023Z,21.17
2019-02-24T13:18:44.575Z,22.50
2019-02-24T13:21:15.086Z,20.53
2019-02-24T13:23:45.793Z,18.43
2019-02-24T13:26:16.686Z,19.47
2019-02-24T13:28:50.454Z,22.57
2019-02-24T13:31:19.450Z,19.17
2019-02-24T13:33:49.963Z,20.43
2019-02-24T13:36:20.925Z,18.93
2019-02-24T13:38:51.660Z,21.03
2019-02-24T13:41:22.239Z,20.67
2019-02-24T13:43:52.798Z,21.77
2019-02-24T13:46:23.350Z,22.20
2019-02-24T13:48:54.260Z,19.67
2019-02-24T13:51:24.764Z,20.93
2019-02-24T13:53:55.291Z,22.03
2019-02-24T13:56:30.112Z,20.47
2019-02-24T13:59:00.663Z,20.13
2019-02-24T14:01:31.976Z,21.23
2019-02-24T14:04:02.470Z,23.30
2019-02-24T14:06:33.074Z,21.60
2019-02-24T14:09:03.715Z,25.30
2019-02-24T14:11:34.240Z,26.03
2019-02-24T14:14:04.826Z,26.23
2019-02-24T14:16:35.355Z,28.60
2019-02-24T14:19:05.911Z,28.33
2019-02-24T14:21:36.435Z,27.70
2019-02-24T14:24:06.926Z,30.13
2019-02-24T14:26:37.578Z,28.43
2019-02-24T14:29:08.127Z,30.07
2019-02-24T14:31:38.727Z,29.77
2019-02-24T14:34:09.355Z,26.50
2019-02-24T14:36:40.831Z,28.53
2019-02-24T14:39:11.878Z,25.07
2019-02-24T14:41:42.387Z,29.47
2019-02-24T14:44:12.938Z,28.47
2019-02-24T14:46:44.823Z,27.30
2019-02-24T14:49:16.081Z,29.17
2019-02-24T14:51:47.947Z,28.50
2019-02-24T14:54:20.266Z,27.87
2019-02-24T14:56:53.613Z,30.50
2019-02-24T14:59:24.609Z,28.73
2019-02-24T15:01:56.248Z,28.27
2019-02-24T15:04:27.492Z,29.17
2019-02-24T15:06:58.163Z,26.27
2019-02-24T15:09:29.009Z,30.37
2019-02-24T15:12:01.110Z,27.00
2019-02-24T15:14:32.329Z,30.53
2019-02-24T15:17:02.943Z,33.70
2019-02-24T15:19:33.507Z,32.03
2019-02-24T15:22:04.618Z,30.83
2019-02-24T15:24:35.167Z,34.77
2019-02-24T15:27:05.684Z,33.63
2019-02-24T15:29:36.234Z,31.73
2019-02-24T15:32:07.244Z,32.17
2019-02-24T15:34:39.133Z,34.53
2019-02-24T15:37:09.711Z,33.73
2019-02-24T15:39:40.280Z,34.03
2019-02-24T15:42:11.604Z,37.00
2019-02-24T15:44:42.789Z,33.77
2019-02-24T15:47:13.839Z,35.83
2019-02-24T15:49:44.438Z,37.13
2019-02-24T15:52:17.899Z,38.33
2019-02-24T15:54:49.527Z,36.67
2019-02-24T15:57:20.476Z,39.60
2019-02-24T15:59:51.018Z,44.73
2019-02-24T16:02:21.767Z,43.97
2019-02-24T16:04:52.331Z,39.93
2019-02-24T16:07:23.000Z,39.43
2019-02-24T16:09:53.565Z,39.67
2019-02-24T16:12:24.575Z,41.73
2019-02-24T16:14:55.271Z,41.90
2019-02-24T16:17:25.977Z,43.40
2019-02-24T16:19:56.499Z,41.73
2019-02-24T16:22:27.160Z,41.17
2019-02-24T16:24:57.689Z,47.17
2019-02-24T16:27:28.261Z,47.30
2019-02-24T16:29:58.782Z,47.87
2019-02-24T16:32:29.443Z,45.77
2019-02-24T16:35:00.266Z,50.23
2019-02-24T16:37:30.757Z,48.10
2019-02-24T16:40:01.308Z,45.63
2019-02-24T16:42:31.980Z,49.77
2019-02-24T16:45:02.683Z,46.40
2019-02-24T16:47:33.282Z,45.00
2019-02-24T16:50:04.408Z,46.57
2019-02-24T16:52:35.155Z,49.40
2019-02-24T16:55:06.038Z,39.73
2019-02-24T16:57:36.571Z,41.60
2019-02-24T17:00:09.614Z,40.07
2019-02-24T17:02:40.147Z,42.00
2019-02-24T17:05:10.668Z,39.87
2019-02-24T17:07:41.198Z,43.27
2019-02-24T17:10:13.073Z,32.93
2019-02-24T17:12:43.638Z,37.37
2019-02-24T17:15:14.935Z,36.87
2019-02-24T17:17:45.528Z,40.93
2019-02-24T17:20:17.131Z,35.07
2019-02-24T17:22:47.675Z,36.00
2019-02-24T17:25:18.348Z,37.43
2019-02-24T17:27:49.031Z,40.13
2019-02-24T17:30:23.821Z,34.80
2019-02-24T17:32:55.173Z,38.73
2019-02-24T17:35:26.211Z,40.57
2019-02-24T17:37:56.743Z,36.83
2019-02-24T17:40:27.270Z,33.90
2019-02-24T17:42:57.927Z,37.50
2019-02-24T17:45:28.791Z,36.10
2019-02-24T17:47:59.819Z,34.40
2019-02-24T17:50:30.343Z,34.93
2019-02-24T17:53:01.124Z,34.10
2019-02-24T17:55:31.667Z,34.60
2019-02-24T17:58:05.260Z,35.80
2019-02-24T18:00:40.962Z,31.80
2019-02-24T18:03:11.467Z,34.50
2019-02-24T18:05:42.987Z,36.57
2019-02-24T18:08:13.584Z,37.77
2019-02-24T18:10:44.080Z,33.83
2019-02-24T18:13:14.611Z,34.47
2019-02-24T18:15:45.668Z,34.07
2019-02-24T18:18:16.156Z,37.77
2019-02-24T18:20:46.715Z,35.87
2019-02-24T18:23:17.871Z,33.33
2019-02-24T18:25:48.515Z,37.83
2019-02-24T18:28:19.075Z,38.87
2019-02-24T18:30:50.191Z,39.43
2019-02-24T18:33:25.073Z,38.17
2019-02-24T18:35:56.396Z,39.27
2019-02-24T18:38:28.056Z,37.87
2019-02-24T18:40:59.040Z,40.23
2019-02-24T18:43:30.213Z,33.57
2019-02-24T18:46:01.216Z,35.80
2019-02-24T18:48:31.752Z,36.43
2019-02-24T18:51:02.319Z,34.73
2019-02-24T18:53:32.899Z,36.33
2019-02-24T18:56:03.403Z,48.03
2019-02-24T18:58:36.185Z,37.23
2019-02-24T19:01:06.763Z,41.10
2019-02-24T19:03:37.712Z,35.73
2019-02-24T19:06:08.295Z,38.67
2019-02-24T19:08:38.822Z,37.73
2019-02-24T19:11:09.387Z,37.70
2019-02-24T19:13:40.324Z,31.87
2019-02-24T19:16:10.859Z,36.77
2019-02-24T19:18:41.679Z,36.30
2019-02-24T19:21:13.795Z,36.70
2019-02-24T19:23:44.639Z,33.13
2019-02-24T19:26:15.260Z,33.60
2019-02-24T19:28:45.771Z,37.67
2019-02-24T19:31:16.362Z,40.27
2019-02-24T19:34:06.986Z,34.77
2019-02-24T19:36:55.213Z,37.63
2019-02-24T19:39:44.482Z,36.33
2019-02-24T19:42:33.452Z,33.93
2019-02-24T19:45:22.111Z,37.67
2019-02-24T19:47:53.203Z,44.40
2019-02-24T19:50:23.988Z,37.20
2019-02-24T19:52:54.605Z,37.47
2019-02-24T19:55:25.712Z,42.20
2019-02-24T19:57:56.765Z,36.03
2019-02-24T20:00:27.286Z,33.90
2019-02-24T20:02:57.851Z,33.23
2019-02-24T20:05:28.428Z,34.03
2019-02-24T20:07:58.971Z,35.33
2019-02-24T20:10:29.658Z,33.07
2019-02-24T20:13:00.213Z,35.67
2019-02-24T20:15:31.667Z,32.93
2019-02-24T20:18:02.280Z,36.27
2019-02-24T20:20:32.819Z,33.03
2019-02-24T20:23:03.388Z,35.27
2019-02-24T20:25:33.912Z,30.20
2019-02-24T20:28:04.947Z,32.17
2019-02-24T20:30:35.488Z,36.37
2019-02-24T20:33:06.057Z,29.47
2019-02-24T20:35:36.605Z,28.77
2019-02-24T20:38:07.147Z,33.30
2019-02-24T20:40:37.691Z,31.10
2019-02-24T20:43:10.670Z,30.43
2019-02-24T20:45:41.209Z,29.07
2019-02-24T20:48:11.740Z,31.10
2019-02-24T20:50:42.337Z,32.23
2019-02-24T20:53:31.363Z,31.23
2019-02-24T20:56:01.335Z,30.27
2019-02-24T20:58:31.831Z,30.47
2019-02-24T21:01:02.368Z,32.90
2019-02-24T21:03:32.912Z,33.40
2019-02-24T21:06:03.518Z,29.00
2019-02-24T21:08:34.104Z,32.97
2019-02-24T21:11:05.149Z,40.10
2019-02-24T21:13:35.644Z,38.43
2019-02-24T21:16:06.207Z,32.07
2019-02-24T21:18:41.450Z,34.13
2019-02-24T21:21:12.001Z,32.03
2019-02-24T21:23:42.652Z,26.83
2019-02-24T21:26:13.204Z,30.57
2019-02-24T21:28:43.723Z,32.93
2019-02-24T21:31:14.251Z,32.90
2019-02-24T21:33:44.766Z,27.73
2019-02-24T21:36:15.404Z,30.37
2019-02-24T21:38:45.923Z,30.97
2019-02-24T21:41:16.519Z,31.23
2019-02-24T21:43:47.079Z,30.17
2019-02-24T21:46:17.615Z,31.20
2019-02-24T21:48:48.175Z,30.23
2019-02-24T21:51:18.875Z,31.00
2019-02-24T21:53:49.429Z,27.47
2019-02-24T21:56:20.049Z,28.20
2019-02-24T21:58:50.591Z,32.47
2019-02-24T22:01:21.162Z,27.90
2019-02-24T22:03:52.049Z,27.33
2019-02-24T22:06:22.629Z,27.90
2019-02-24T22:08:53.163Z,27.13
2019-02-24T22:11:23.704Z,25.62
2019-02-24T22:13:54.380Z,27.40
2019-02-24T22:16:24.927Z,26.53
2019-02-24T22:18:55.432Z,28.67
2019-02-24T22:21:28.243Z,28.67
2019-02-24T22:23:58.828Z,28.03
2019-02-24T22:26:29.364Z,31.02
2019-02-24T22:28:59.942Z,43.03
2019-02-24T22:31:30.503Z,30.53
2019-02-24T22:34:01.028Z,28.50
2019-02-24T22:36:31.590Z,32.80
2019-02-24T22:39:02.128Z,30.80
2019-02-24T22:41:32.629Z,26.43
2019-02-24T22:44:03.599Z,28.43
2019-02-24T22:46:34.860Z,24.47
2019-02-24T22:49:05.390Z,23.60
2019-02-24T22:51:36.021Z,27.77
2019-02-24T22:54:06.660Z,25.37
2019-02-24T22:56:37.202Z,26.37
2019-02-24T22:59:07.719Z,27.37
2019-02-24T23:01:39.729Z,25.23
2019-02-24T23:04:12.130Z,28.13
2019-02-24T23:06:42.689Z,27.73
2019-02-24T23:09:19.042Z,29.03
2019-02-24T23:11:49.987Z,32.50
2019-02-24T23:14:20.586Z,27.37
2019-02-24T23:16:51.096Z,29.10
2019-02-24T23:19:21.940Z,25.70
2019-02-24T23:21:52.462Z,32.77
2019-02-24T23:24:24.182Z,27.17
2019-02-24T23:26:54.744Z,30.97
2019-02-24T23:29:25.296Z,31.10
2019-02-24T23:31:55.825Z,27.47
2019-02-24T23:34:26.397Z,28.43
2019-02-24T23:36:56.896Z,28.37
2019-02-24T23:39:27.404Z,29.43
2019-02-24T23:41:57.961Z,25.20
2019-02-24T23:44:30.376Z,29.17
2019-02-24T23:47:00.954Z,39.17
2019-02-24T23:49:31.591Z,29.70
2019-02-24T23:52:02.130Z,27.57
2019-02-24T23:54:32.646Z,29.13
2019-02-24T23:57:03.244Z,28.70
2019-02-24T23:59:33.773Z,26.10
